createdAt,value
2017-11-08T00:00:16.524Z,101425.89
2017-11-08T00:02:51.550Z,101429.27
2017-11-08T00:05:26.712Z,101428.41
2017-11-08T00:08:02.312Z,101420.62
2017-11-08T00:10:37.560Z,101417.06
2017-11-08T00:13:12.570Z,101419.09
2017-11-08T00:15:47.634Z,101417.11
2017-11-08T00:18:25.275Z,101420.53
2017-11-08T00:21:00.043Z,101413.84
2017-11-08T00:23:35.612Z,101413.64
2017-11-08T00:26:10.827Z,101406.23
2017-11-08T00:28:46.035Z,101407.52
2017-11-08T00:31:20.765Z,101409.92
2017-11-08T00:33:55.696Z,101403.61
2017-11-08T00:36:30.400Z,101410.41
2017-11-08T00:39:04.984Z,101412.70
2017-11-08T00:41:39.695Z,101444.25
2017-11-08T00:44:14.654Z,101416.35
2017-11-08T00:46:49.948Z,101414.37
2017-11-08T00:49:25.514Z,101411.15
2017-11-08T00:52:00.415Z,101410.90
2017-11-08T00:54:35.448Z,101413.09
2017-11-08T00:57:10.304Z,101407.82
2017-11-08T00:59:45.456Z,101408.27
2017-11-08T01:02:20.452Z,101400.17
2017-11-08T01:04:55.236Z,101406.73
2017-11-08T01:07:30.155Z,101404.98
2017-11-08T01:10:05.163Z,101402.86
2017-11-08T01:12:40.576Z,101406.09
2017-11-08T01:15:15.768Z,101399.55
2017-11-08T01:17:50.662Z,101404.70
2017-11-08T01:20:25.984Z,101408.17
2017-11-08T01:23:00.928Z,101403.91
2017-11-08T01:25:35.738Z,101397.27
2017-11-08T01:28:10.584Z,101399.65
2017-11-08T01:30:45.863Z,101392.94
2017-11-08T01:33:20.964Z,101383.14
2017-11-08T01:35:55.529Z,101398.39
2017-11-08T01:38:30.493Z,101406.53
2017-11-08T01:54:34.880Z,101406.38
2017-11-08T01:57:09.440Z,101410.51
2017-11-08T01:59:44.107Z,101411.19
2017-11-08T02:02:18.654Z,101411.44
2017-11-08T02:04:53.115Z,101411.05
2017-11-08T02:07:28.163Z,101412.52
2017-11-08T02:10:02.892Z,101412.31
2017-11-08T02:12:37.815Z,101410.03
2017-11-08T02:15:12.563Z,101412.42
2017-11-08T02:17:51.983Z,101408.81
2017-11-08T02:20:26.892Z,101415.80
2017-11-08T02:23:01.664Z,101407.03
2017-11-08T02:25:36.419Z,101404.55
2017-11-08T02:28:11.296Z,101397.06
2017-11-08T02:30:46.255Z,101399.16
2017-11-08T02:33:20.300Z,101390.77
2017-11-08T02:35:55.318Z,101386.05
2017-11-08T02:38:30.630Z,101376.67
2017-11-08T02:41:05.555Z,101375.98
2017-11-08T02:43:40.588Z,101379.01
2017-11-08T02:46:20.569Z,101374.69
2017-11-08T02:48:55.315Z,101372.89
2017-11-08T02:51:29.812Z,101377.61
2017-11-08T02:54:05.153Z,101373.58
2017-11-08T02:56:40.081Z,101376.70
2017-11-08T02:59:15.132Z,101380.79
2017-11-08T03:01:50.164Z,101379.69
2017-11-08T03:04:25.628Z,101383.31
2017-11-08T03:07:00.119Z,101379.20
2017-11-08T03:09:35.391Z,101382.23
2017-11-08T03:12:10.448Z,101378.48
2017-11-08T03:14:45.176Z,101365.97
2017-11-08T03:17:20.131Z,101356.38
2017-11-08T03:19:55.104Z,101356.08
2017-11-08T03:22:29.744Z,101357.46
2017-11-08T03:25:04.655Z,101360.77
2017-11-08T03:27:39.696Z,101362.11
2017-11-08T03:30:14.098Z,101356.80
2017-11-08T03:32:49.352Z,101361.27
2017-11-08T03:35:23.852Z,101376.27
2017-11-08T03:37:59.236Z,101377.75
2017-11-08T03:40:34.193Z,101373.39
2017-11-08T03:43:09.225Z,101397.03
2017-11-08T03:45:44.289Z,101385.64
2017-11-08T03:48:19.575Z,101386.64
2017-11-08T03:50:54.412Z,101393.89
2017-11-08T03:53:29.764Z,101391.12
2017-11-08T03:56:04.752Z,101389.55
2017-11-08T03:58:39.592Z,101380.00
2017-11-08T04:01:14.461Z,101383.81
2017-11-08T04:03:49.587Z,101384.97
2017-11-08T04:06:24.400Z,101381.73
2017-11-08T04:08:59.246Z,101377.06
2017-11-08T04:11:34.050Z,101379.20
2017-11-08T04:14:08.851Z,101381.98
2017-11-08T04:16:43.973Z,101383.72
2017-11-08T04:19:18.979Z,101373.69
2017-11-08T04:21:53.587Z,101376.55
2017-11-08T04:24:27.586Z,101380.97
2017-11-08T04:27:02.712Z,101380.38
2017-11-08T04:29:37.621Z,101379.97
2017-11-08T04:32:12.467Z,101380.48
2017-11-08T04:34:47.207Z,101382.56
2017-11-08T04:37:21.936Z,101393.20
2017-11-08T04:39:56.879Z,101381.09
2017-11-08T04:42:31.844Z,101389.50
2017-11-08T04:45:06.321Z,101394.72
2017-11-08T04:47:41.447Z,101390.45
2017-11-08T04:50:16.468Z,101396.00
2017-11-08T04:52:51.390Z,101395.86
2017-11-08T04:55:26.344Z,101398.98
2017-11-08T04:58:01.251Z,101402.80
2017-11-08T05:00:36.220Z,101401.61
2017-11-08T05:03:11.248Z,101405.28
2017-11-08T05:05:46.369Z,101402.66
2017-11-08T05:08:22.620Z,101402.11
2017-11-08T05:10:57.243Z,101398.53
2017-11-08T05:13:32.505Z,101408.91
2017-11-08T05:16:07.922Z,101407.67
2017-11-08T05:18:43.175Z,101412.05
2017-11-08T05:21:17.535Z,101407.38
2017-11-08T05:23:52.876Z,101403.02
2017-11-08T05:26:28.199Z,101396.37
2017-11-08T05:29:02.840Z,101387.12
2017-11-08T05:31:37.668Z,101387.38
2017-11-08T05:34:12.516Z,101388.90
2017-11-08T05:36:47.108Z,101369.92
2017-11-08T05:39:22.352Z,101357.81
2017-11-08T05:41:57.260Z,101361.67
2017-11-08T05:44:31.994Z,101370.57
2017-11-08T05:47:06.782Z,101358.41
2017-11-08T05:49:41.399Z,101364.30
2017-11-08T05:52:16.203Z,101374.91
2017-11-08T05:54:51.463Z,101362.65
2017-11-08T05:57:26.393Z,101356.98
2017-11-08T06:00:01.415Z,101348.42
2017-11-08T06:02:36.584Z,101348.86
2017-11-08T06:05:11.611Z,101356.38
2017-11-08T06:07:46.616Z,101361.66
2017-11-08T06:10:21.740Z,101367.23
2017-11-08T06:12:56.987Z,101369.30
2017-11-08T06:15:32.116Z,101366.05
2017-11-08T06:18:07.068Z,101356.13
2017-11-08T06:20:42.497Z,101356.06
2017-11-08T06:23:17.440Z,101360.39
2017-11-08T06:25:51.690Z,101375.40
2017-11-08T06:28:26.878Z,101373.61
2017-11-08T06:31:01.935Z,101368.14
2017-11-08T06:33:36.655Z,101384.16
2017-11-08T06:36:11.360Z,101380.38
2017-11-08T06:38:46.315Z,101381.48
2017-11-08T06:41:20.696Z,101396.02
2017-11-08T06:43:55.999Z,101401.92
2017-11-08T06:46:30.900Z,101399.91
2017-11-08T06:49:05.852Z,101405.77
2017-11-08T06:51:40.792Z,101403.19
2017-11-08T06:54:15.416Z,101410.62
2017-11-08T06:56:50.212Z,101417.38
2017-11-08T06:59:25.072Z,101424.52
2017-11-08T07:02:00.019Z,101433.87
2017-11-08T07:04:35.416Z,101433.04
2017-11-08T07:07:10.079Z,101445.25
2017-11-08T07:09:45.116Z,101441.98
2017-11-08T07:12:19.936Z,101442.48
2017-11-08T07:14:54.808Z,101452.12
2017-11-08T07:17:31.318Z,101448.45
2017-11-08T07:20:06.581Z,101462.99
2017-11-08T07:22:41.303Z,101461.60
2017-11-08T07:25:16.423Z,101460.72
2017-11-08T07:27:51.952Z,101451.48
2017-11-08T07:30:26.829Z,101459.34
2017-11-08T07:33:01.860Z,101461.12
2017-11-08T07:35:36.708Z,101456.24
2017-11-08T07:38:11.752Z,101459.38
2017-11-08T07:40:46.664Z,101465.33
2017-11-08T07:43:21.310Z,101466.96
2017-11-08T07:45:56.489Z,101454.55
2017-11-08T07:48:30.883Z,101452.89
2017-11-08T07:51:05.728Z,101452.29
2017-11-08T07:53:40.743Z,101439.70
2017-11-08T07:56:15.664Z,101426.53
2017-11-08T07:58:50.343Z,101436.17
2017-11-08T08:01:25.372Z,101457.04
2017-11-08T08:04:00.328Z,101458.43
2017-11-08T08:06:35.179Z,101461.39
2017-11-08T08:09:09.935Z,101473.21
2017-11-08T08:11:47.492Z,101475.09
2017-11-08T08:14:22.867Z,101476.70
2017-11-08T08:16:57.264Z,101479.53
2017-11-08T08:19:32.096Z,101481.53
2017-11-08T08:22:06.800Z,101473.48
2017-11-08T08:24:41.727Z,101480.72
2017-11-08T08:27:16.244Z,101494.95
2017-11-08T08:29:51.134Z,101501.28
2017-11-08T08:32:26.174Z,101496.20
2017-11-08T08:35:01.099Z,101499.79
2017-11-08T08:37:35.959Z,101507.30
2017-11-08T08:40:10.756Z,101503.23
2017-11-08T08:42:45.483Z,101500.84
2017-11-08T08:45:20.742Z,101506.61
2017-11-08T08:47:56.098Z,101503.92
2017-11-08T08:50:30.897Z,101509.97
2017-11-08T08:53:06.019Z,101501.85
2017-11-08T08:55:40.843Z,101507.61
2017-11-08T08:58:15.709Z,101500.05
2017-11-08T09:00:50.529Z,101504.98
2017-11-08T09:03:25.392Z,101511.20
2017-11-08T09:06:00.388Z,101514.36
2017-11-08T09:08:35.418Z,101516.25
2017-11-08T09:11:10.493Z,101514.31
2017-11-08T09:13:45.395Z,101519.17
2017-11-08T09:16:20.265Z,101521.91
2017-11-08T09:18:55.084Z,101529.04
2017-11-08T09:21:32.411Z,101531.69
2017-11-08T09:24:07.435Z,101529.39
2017-11-08T09:26:45.183Z,101524.97
2017-11-08T09:29:25.339Z,101521.55
2017-11-08T09:32:00.888Z,101510.16
2017-11-08T09:34:35.608Z,101514.27
2017-11-08T09:37:10.419Z,101510.73
2017-11-08T09:39:44.871Z,101520.72
2017-11-08T09:42:21.009Z,101521.20
2017-11-08T09:44:55.793Z,101520.64
2017-11-08T09:47:30.814Z,101517.64
2017-11-08T09:50:05.768Z,101521.05
2017-11-08T09:52:42.167Z,101539.99
2017-11-08T09:55:16.857Z,101532.23
2017-11-08T09:57:51.675Z,101532.16
2017-11-08T10:00:25.972Z,101536.52
2017-11-08T10:03:01.127Z,101539.88
2017-11-08T10:05:36.867Z,101540.44
2017-11-08T10:08:11.670Z,101537.00
2017-11-08T10:10:46.265Z,101543.07
2017-11-08T10:13:27.823Z,101536.77
2017-11-08T10:16:03.269Z,101536.85
2017-11-08T10:18:37.991Z,101530.47
2017-11-08T10:21:12.984Z,101525.01
2017-11-08T10:23:48.484Z,101524.03
2017-11-08T10:26:22.956Z,101519.39
2017-11-08T10:28:57.964Z,101535.20
2017-11-08T10:31:32.687Z,101522.40
2017-11-08T10:34:07.286Z,101523.09
2017-11-08T10:36:42.140Z,101532.63
2017-11-08T10:39:16.945Z,101531.31
2017-11-08T10:41:51.887Z,101544.27
2017-11-08T10:44:26.579Z,101531.70
2017-11-08T10:47:01.889Z,101543.33
2017-11-08T10:49:36.906Z,101531.44
2017-11-08T10:52:11.435Z,101553.08
2017-11-08T10:54:46.093Z,101551.05
2017-11-08T10:57:20.592Z,101548.05
2017-11-08T11:13:24.056Z,101543.36
2017-11-08T11:15:59.013Z,101540.52
2017-11-08T11:18:33.668Z,101540.20
2017-11-08T11:21:08.248Z,101549.52
2017-11-08T11:23:48.085Z,101548.73
2017-11-08T11:26:28.125Z,101544.81
2017-11-08T11:29:02.512Z,101552.48
2017-11-08T11:31:37.186Z,101540.11
2017-11-08T11:34:11.978Z,101548.77
2017-11-08T11:36:46.620Z,101507.59
2017-11-08T11:39:21.275Z,101544.91
2017-11-08T11:41:56.056Z,101546.53
2017-11-08T11:44:30.797Z,101553.93
2017-11-08T11:47:05.496Z,101557.91
2017-11-08T11:49:40.227Z,101551.85
2017-11-08T11:52:15.028Z,101551.73
2017-11-08T11:54:49.803Z,101550.06
2017-11-08T11:57:24.652Z,101559.59
2017-11-08T12:00:03.238Z,101551.02
2017-11-08T12:02:38.388Z,101551.25
2017-11-08T12:05:12.889Z,101551.42
2017-11-08T12:07:47.748Z,101545.14
2017-11-08T12:10:27.113Z,101552.48
2017-11-08T12:13:01.404Z,101550.23
2017-11-08T12:15:36.236Z,101549.50
2017-11-08T12:18:14.459Z,101538.25
2017-11-08T12:20:49.096Z,101529.79
2017-11-08T12:23:23.724Z,101528.30
2017-11-08T12:25:58.586Z,101532.28
2017-11-08T12:28:32.976Z,101526.16
2017-11-08T12:31:07.605Z,101529.70
2017-11-08T12:33:43.652Z,101539.06
2017-11-08T12:36:17.989Z,101538.05
2017-11-08T12:38:52.853Z,101546.33
2017-11-08T12:41:29.350Z,101536.92
2017-11-08T12:44:04.278Z,101541.24
2017-11-08T12:46:39.081Z,101541.06
2017-11-08T12:49:14.214Z,101540.39
2017-11-08T12:51:48.784Z,101546.86
2017-11-08T12:54:23.233Z,101545.49
2017-11-08T12:56:57.948Z,101539.56
2017-11-08T12:59:33.120Z,101538.22
2017-11-08T13:02:07.916Z,101527.52
2017-11-08T13:04:42.980Z,101525.31
2017-11-08T13:07:17.698Z,101528.02
2017-11-08T13:09:52.347Z,101510.36
2017-11-08T13:12:27.265Z,101518.33
2017-11-08T13:15:01.934Z,101525.44
2017-11-08T13:17:36.763Z,101524.27
2017-11-08T13:20:11.725Z,101533.97
2017-11-08T13:22:46.388Z,101532.55
2017-11-08T13:25:21.145Z,101520.84
2017-11-08T13:27:55.622Z,101535.69
2017-11-08T13:30:30.276Z,101541.96
2017-11-08T13:33:04.982Z,101529.68
2017-11-08T13:35:39.608Z,101528.34
2017-11-08T13:38:14.389Z,101527.23
2017-11-08T13:40:49.193Z,101532.33
2017-11-08T13:43:25.300Z,101527.51
2017-11-08T13:46:00.254Z,101536.92
2017-11-08T13:48:34.857Z,101552.26
2017-11-08T13:51:10.247Z,101561.44
2017-11-08T13:53:44.751Z,101559.89
2017-11-08T13:56:19.565Z,101548.84
2017-11-08T13:58:54.570Z,101540.50
2017-11-08T14:01:29.325Z,101533.10
2017-11-08T14:04:07.148Z,101531.02
2017-11-08T14:06:42.524Z,101549.22
2017-11-08T14:09:17.352Z,101556.96
2017-11-08T14:11:55.684Z,101555.94
2017-11-08T14:14:30.156Z,101561.05
2017-11-08T14:17:04.914Z,101558.75
2017-11-08T14:19:39.937Z,101560.26
2017-11-08T14:22:15.719Z,101563.48
2017-11-08T14:24:50.272Z,101564.63
2017-11-08T14:27:25.188Z,101556.16
2017-11-08T14:30:01.616Z,101562.09
2017-11-08T14:32:39.780Z,101554.81
2017-11-08T14:35:14.266Z,101554.38
2017-11-08T14:37:49.613Z,101556.91
2017-11-08T14:40:24.532Z,101559.28
2017-11-08T14:42:59.789Z,101559.75
2017-11-08T14:45:34.652Z,101567.69
2017-11-08T14:48:09.645Z,101575.75
2017-11-08T14:50:44.477Z,101574.02
2017-11-08T14:53:23.107Z,101572.28
2017-11-08T14:55:58.318Z,101572.70
2017-11-08T14:58:33.914Z,101576.68
2017-11-08T15:01:08.945Z,101565.76
2017-11-08T15:03:43.939Z,101566.81
2017-11-08T15:06:18.764Z,101579.66
2017-11-08T15:08:53.720Z,101581.73
2017-11-08T15:11:28.490Z,101582.67
2017-11-08T15:14:04.580Z,101581.56
2017-11-08T15:16:40.097Z,101575.59
2017-11-08T15:19:15.097Z,101579.92
2017-11-08T15:21:50.516Z,101590.41
2017-11-08T15:24:25.577Z,101597.42
2017-11-08T15:27:00.514Z,101595.81
2017-11-08T15:29:37.481Z,101606.70
2017-11-08T15:32:12.172Z,101607.13
2017-11-08T15:34:47.981Z,101599.67
2017-11-08T15:37:22.965Z,101596.84
2017-11-08T15:39:59.389Z,101600.19
2017-11-08T15:42:34.529Z,101602.83
2017-11-08T15:45:10.401Z,101600.88
2017-11-08T15:47:47.180Z,101606.93
2017-11-08T15:50:21.977Z,101613.20
2017-11-08T15:52:56.762Z,101617.23
2017-11-08T15:55:32.018Z,101619.63
2017-11-08T15:58:07.137Z,101610.48
2017-11-08T16:00:42.037Z,101620.77
2017-11-08T16:03:17.721Z,101619.34
2017-11-08T16:05:52.993Z,101618.55
2017-11-08T16:08:27.745Z,101617.84
2017-11-08T16:11:02.676Z,101614.52
2017-11-08T16:13:37.617Z,101612.67
2017-11-08T16:16:12.866Z,101616.50
2017-11-08T16:18:47.936Z,101617.23
2017-11-08T16:21:22.560Z,101622.10
2017-11-08T16:23:58.489Z,101627.09
2017-11-08T16:26:33.402Z,101628.88
2017-11-08T16:29:08.250Z,101635.32
2017-11-08T16:31:49.720Z,101633.80
2017-11-08T16:34:24.145Z,101633.73
2017-11-08T16:36:59.421Z,101644.09
2017-11-08T16:39:35.062Z,101638.34
2017-11-08T16:42:10.951Z,101636.66
2017-11-08T16:44:46.453Z,101639.09
2017-11-08T16:47:21.588Z,101632.33
2017-11-08T16:49:56.289Z,101632.39
2017-11-08T16:52:31.205Z,101636.48
2017-11-08T16:55:05.825Z,101639.22
2017-11-08T16:57:40.769Z,101642.30
2017-11-08T17:00:15.862Z,101646.08
2017-11-08T17:02:51.065Z,101652.18
2017-11-08T17:05:25.913Z,101648.69
2017-11-08T17:08:01.032Z,101650.55
2017-11-08T17:10:35.769Z,101648.75
2017-11-08T17:13:10.829Z,101649.59
2017-11-08T17:15:45.828Z,101655.41
2017-11-08T17:18:21.555Z,101655.77
2017-11-08T17:20:56.455Z,101653.45
2017-11-08T17:23:31.660Z,101658.73
2017-11-08T17:26:06.737Z,101663.91
2017-11-08T17:28:41.841Z,101663.90
2017-11-08T17:31:17.121Z,101659.72
2017-11-08T17:33:52.006Z,101661.50
2017-11-08T17:36:27.054Z,101666.93
2017-11-08T17:39:02.721Z,101662.90
2017-11-08T17:41:37.686Z,101674.06
2017-11-08T17:44:12.491Z,101678.59
2017-11-08T17:46:47.693Z,101667.80
2017-11-08T17:49:22.669Z,101674.96
2017-11-08T17:51:58.086Z,101673.17
2017-11-08T17:54:33.244Z,101678.25
2017-11-08T17:57:08.485Z,101687.27
2017-11-08T17:59:44.229Z,101682.70
2017-11-08T18:02:19.157Z,101688.61
2017-11-08T18:04:54.337Z,101686.83
2017-11-08T18:07:28.756Z,101681.89
2017-11-08T18:10:03.537Z,101687.27
2017-11-08T18:12:38.529Z,101680.20
2017-11-08T18:15:13.151Z,101682.10
2017-11-08T18:17:48.452Z,101677.28
2017-11-08T18:20:23.229Z,101679.27
2017-11-08T18:22:57.613Z,101681.35
2017-11-08T18:25:32.636Z,101676.03
2017-11-08T18:28:07.436Z,101678.86
2017-11-08T18:30:42.175Z,101677.58
2017-11-08T18:33:16.994Z,101682.89
2017-11-08T18:35:51.829Z,101684.79
2017-11-08T18:38:26.634Z,101681.66
2017-11-08T18:41:01.762Z,101686.98
2017-11-08T18:43:36.883Z,101686.69
2017-11-08T18:46:12.095Z,101693.11
2017-11-08T18:48:47.241Z,101689.63
2017-11-08T18:51:22.530Z,101690.19
2017-11-08T18:53:57.525Z,101694.20
2017-11-08T18:56:31.899Z,101692.53
2017-11-08T18:59:07.425Z,101692.19
2017-11-08T19:01:42.990Z,101694.77
2017-11-08T19:04:17.972Z,101698.48
2017-11-08T19:06:53.108Z,101698.00
2017-11-08T19:09:28.240Z,101699.30
2017-11-08T19:12:03.313Z,101698.05
2017-11-08T19:14:38.344Z,101703.56
2017-11-08T19:17:13.072Z,101708.05
2017-11-08T19:19:48.419Z,101709.80
2017-11-08T19:22:23.560Z,101715.22
2017-11-08T19:24:57.825Z,101711.97
2017-11-08T19:27:33.188Z,101712.48
2017-11-08T19:30:07.951Z,101711.48
2017-11-08T19:32:42.819Z,101716.86
2017-11-08T19:35:17.774Z,101710.39
2017-11-08T19:37:52.725Z,101704.95
2017-11-08T19:40:27.408Z,101704.02
2017-11-08T19:43:02.425Z,101704.95
2017-11-08T19:45:37.621Z,101705.36
2017-11-08T19:48:12.852Z,101714.36
2017-11-08T19:50:47.918Z,101716.50
2017-11-08T19:53:22.961Z,101719.69
2017-11-08T19:55:58.259Z,101716.09
2017-11-08T19:58:33.365Z,101712.77
2017-11-08T20:01:08.416Z,101718.64
2017-11-08T20:03:43.201Z,101720.98
2017-11-08T20:06:18.310Z,101717.44
2017-11-08T20:08:53.456Z,101724.27
2017-11-08T20:11:28.269Z,101718.30
2017-11-08T20:14:03.180Z,101718.84
2017-11-08T20:16:37.997Z,101721.83
2017-11-08T20:19:13.798Z,101721.19
2017-11-08T20:21:48.754Z,101716.69
2017-11-08T20:24:23.891Z,101720.94
2017-11-08T20:26:58.507Z,101723.83
2017-11-08T20:29:33.336Z,101723.78
2017-11-08T20:32:07.960Z,101722.48
2017-11-08T20:34:42.842Z,101723.37
2017-11-08T20:37:17.632Z,101728.59
2017-11-08T20:39:52.461Z,101723.11
2017-11-08T20:42:27.073Z,101714.38
2017-11-08T20:45:02.242Z,101718.80
2017-11-08T20:47:37.261Z,101726.26
2017-11-08T20:50:12.178Z,101721.83
2017-11-08T20:52:47.190Z,101722.72
2017-11-08T20:55:22.217Z,101729.30
2017-11-08T20:57:57.140Z,101731.98
2017-11-08T21:00:32.136Z,101721.63
2017-11-08T21:03:07.085Z,101718.88
2017-11-08T21:05:41.998Z,101720.52
2017-11-08T21:08:17.085Z,101709.72
2017-11-08T21:10:52.212Z,101719.77
2017-11-08T21:13:27.169Z,101722.27
2017-11-08T21:16:01.919Z,101715.16
2017-11-08T21:18:36.941Z,101712.03
2017-11-08T21:21:12.369Z,101705.92
2017-11-08T21:23:46.986Z,101710.80
2017-11-08T21:26:22.313Z,101715.81
2017-11-08T21:28:57.242Z,101713.89
2017-11-08T21:31:32.169Z,101724.48
2017-11-08T21:34:06.705Z,101714.77
2017-11-08T21:36:41.949Z,101717.11
2017-11-08T21:39:16.674Z,101718.59
2017-11-08T21:41:51.701Z,101708.93
2017-11-08T21:44:27.386Z,101708.53
2017-11-08T21:47:02.254Z,101704.05
2017-11-08T21:49:37.163Z,101705.78
2017-11-08T21:52:12.042Z,101700.42
2017-11-08T21:54:47.412Z,101702.02
2017-11-08T21:57:22.725Z,101699.79
2017-11-08T21:59:57.856Z,101704.58
2017-11-08T22:02:32.620Z,101705.72
2017-11-08T22:05:07.308Z,101711.99
2017-11-08T22:07:42.322Z,101704.33
2017-11-08T22:10:17.544Z,101708.21
2017-11-08T22:12:52.788Z,101706.56
2017-11-08T22:15:27.650Z,101705.67
2017-11-08T22:18:02.589Z,101696.98
2017-11-08T22:20:52.881Z,101695.58
2017-11-08T22:23:27.678Z,101701.35
2017-11-08T22:26:02.546Z,101703.00
2017-11-08T22:28:37.706Z,101699.36
2017-11-08T22:31:12.517Z,101696.08
2017-11-08T22:33:47.242Z,101692.00
2017-11-08T22:36:21.733Z,101693.53
2017-11-08T22:38:56.197Z,101693.39
2017-11-08T22:41:30.909Z,101697.77
2017-11-08T22:44:05.714Z,101694.92
2017-11-08T22:46:40.885Z,101701.13
2017-11-08T22:49:16.110Z,101698.86
2017-11-08T22:51:50.926Z,101696.22
2017-11-08T22:54:25.860Z,101695.92
2017-11-08T22:57:02.251Z,101691.24
2017-11-08T22:59:37.301Z,101687.81
2017-11-08T23:02:12.242Z,101685.82
2017-11-08T23:04:47.664Z,101681.55
2017-11-08T23:07:22.809Z,101678.57
2017-11-08T23:09:58.051Z,101682.11
2017-11-08T23:12:33.202Z,101681.20
2017-11-08T23:15:07.832Z,101671.41
2017-11-08T23:17:42.582Z,101674.45
2017-11-08T23:20:17.540Z,101673.55
2017-11-08T23:22:52.492Z,101667.09
2017-11-08T23:25:27.229Z,101666.34
2017-11-08T23:28:02.989Z,101662.06
2017-11-08T23:30:37.718Z,101659.23
2017-11-08T23:33:12.307Z,101657.70
2017-11-08T23:35:47.223Z,101659.44
2017-11-08T23:38:22.213Z,101667.37
2017-11-08T23:40:56.967Z,101670.77
2017-11-08T23:43:31.894Z,101673.26
2017-11-08T23:46:07.177Z,101674.48
2017-11-08T23:48:42.468Z,101667.28
2017-11-08T23:51:17.914Z,101674.48
2017-11-08T23:53:52.681Z,101668.67
2017-11-08T23:56:31.697Z,101671.27
